Lake Villa, Illinois
Current Conditions -  °F | °C
As of 2:23 PM on Monday 24 Nov 2014 (Local Time) from KUGN Reporting Station
Light Snow Light Snow  
Wind Chill: -7°   Ceiling: 1500
Heat Index: -1°   Visibility: 1mi
Dew Point: -3°   Wind: 16mph
Humidity: 88%   Direction: 230°SW
Pressure: 29.38"   Gusts: 31mph
Location:  42.42°N, 88.07°W
Report Text: KUGN 242023Z 23014G27KT 1SM -SN BR BKN015 OVC021 M01/M03 A2938 RMK AO2 PK WND 22027/2021 PRESRR P0000 T10111028
Loading
Personal Weather Stations






























Interactive Weather Map New forecast layout! Learn more

10-Day Weather Forecast

Advertisements
Track Severe Weather on mobile